Time;durP1;ratioP1;P1;durP2;ratioP2;P2;SDS_P1;SDS_P2;PMS_P1;PMS_P2;Temp;Humidity;BMP_temperature;BMP_pressure;BME280_temperature;BME280_humidity;BME280_pressure;Samples;Min_cycle;Max_cycle;Signal;HPM_P1;HPM_P2
2023/06/26 00:00:44;;;;;;;10.13;9.02;;;;;;;;;;5063373;28;20239;-52
2023/06/26 00:03:14;;;;;;;9.90;8.95;;;;;;;;;;5059570;28;20327;-51
2023/06/26 00:05:41;;;;;;;10.20;9.27;;;;;;;;;;5060043;28;21007;-53
2023/06/26 00:08:07;;;;;;;11.30;9.55;;;;;;;;;;5063607;28;20228;-54
2023/06/26 00:10:34;;;;;;;9.82;8.88;;;;;;;;;;5061216;28;20293;-52
2023/06/26 00:13:00;;;;;;;9.20;8.40;;;;;;;;;;5067553;28;20265;-52
2023/06/26 00:15:31;;;;;;;12.07;10.98;;;;;;;;;;5063777;28;20811;-52
2023/06/26 00:17:57;;;;;;;9.75;8.85;;;;;;;;;;5064193;28;20245;-52
2023/06/26 00:20:24;;;;;;;8.65;7.85;;;;;;;;;;5065125;28;20234;-52
2023/06/26 00:22:51;;;;;;;10.52;9.52;;;;;;;;;;5063388;28;20228;-52
2023/06/26 00:25:17;;;;;;;10.20;9.20;;;;;;;;;;5059535;28;20231;-52
2023/06/26 00:27:44;;;;;;;8.60;7.80;;;;;;;;;;5062803;28;20258;-52
2023/06/26 00:30:10;;;;;;;8.55;7.75;;;;;;;;;;5054168;28;20246;-51
2023/06/26 00:32:38;;;;;;;11.60;9.50;;;;;;;;;;5058583;28;20492;-51
2023/06/26 00:35:05;;;;;;;10.18;9.27;;;;;;;;;;5061859;28;20223;-51
2023/06/26 00:37:31;;;;;;;10.38;9.40;;;;;;;;;;5057552;28;20323;-53
2023/06/26 00:39:58;;;;;;;9.05;8.25;;;;;;;;;;5059924;28;20311;-52
2023/06/26 00:42:24;;;;;;;8.70;7.90;;;;;;;;;;5061708;28;20238;-53
2023/06/26 00:44:50;;;;;;;9.80;8.90;;;;;;;;;;5062518;28;20668;-51
2023/06/26 00:47:18;;;;;;;9.95;8.48;;;;;;;;;;5062630;28;20907;-52
2023/06/26 00:49:46;;;;;;;8.23;7.53;;;;;;;;;;5062306;28;20246;-52
2023/06/26 00:52:12;;;;;;;10.10;9.18;;;;;;;;;;5061686;28;20231;-52
2023/06/26 00:54:39;;;;;;;9.85;8.45;;;;;;;;;;5045307;28;20232;-53
2023/06/26 00:57:08;;;;;;;8.68;7.88;;;;;;;;;;5062267;28;20227;-52
2023/06/26 00:59:35;;;;;;;8.68;7.88;;;;;;;;;;5057083;28;20319;-52
2023/06/26 01:02:02;;;;;;;8.68;7.88;;;;;;;;;;5068181;28;20227;-52
2023/06/26 01:04:32;;;;;;;8.57;7.80;;;;;;;;;;5061220;28;20227;-53
2023/06/26 01:07:00;;;;;;;8.10;7.30;;;;;;;;;;5073383;28;20230;-52
2023/06/26 01:09:27;;;;;;;9.00;8.20;;;;;;;;;;5059989;28;20310;-52
2023/06/26 01:11:54;;;;;;;9.32;8.50;;;;;;;;;;5070025;28;20608;-52
2023/06/26 01:14:20;;;;;;;8.48;7.63;;;;;;;;;;5064398;28;20315;-51
2023/06/26 01:16:48;;;;;;;8.38;7.40;;;;;;;;;;5065550;28;20267;-53
2023/06/26 01:19:24;;;;;;;9.82;8.63;;;;;;;;;;5060600;28;20223;-53
2023/06/26 01:21:52;;;;;;;9.70;8.75;;;;;;;;;;5040091;28;20250;-52
2023/06/26 01:24:21;;;;;;;10.65;8.77;;;;;;;;;;5041775;28;20243;-51
2023/06/26 01:26:50;;;;;;;9.93;8.93;;;;;;;;;;5041397;28;20414;-52
2023/06/26 01:29:18;;;;;;;9.13;8.27;;;;;;;;;;5048693;28;20236;-51
2023/06/26 01:31:46;;;;;;;11.38;9.40;;;;;;;;;;5038888;28;22070;-52
2023/06/26 01:34:13;;;;;;;9.63;8.82;;;;;;;;;;5031680;28;20331;-52
2023/06/26 01:36:40;;;;;;;8.95;8.20;;;;;;;;;;5039427;28;20248;-54
2023/06/26 01:39:08;;;;;;;9.20;8.40;;;;;;;;;;5049184;28;20779;-53
2023/06/26 01:41:35;;;;;;;8.88;8.07;;;;;;;;;;5045328;28;20794;-53
2023/06/26 01:44:07;;;;;;;10.70;9.80;;;;;;;;;;5034609;28;20802;-52
2023/06/26 01:46:37;;;;;;;8.73;7.93;;;;;;;;;;5040774;28;20235;-52
2023/06/26 01:49:07;;;;;;;11.38;9.52;;;;;;;;;;5057947;28;20284;-52
2023/06/26 01:51:44;;;;;;;11.25;9.52;;;;;;;;;;5046838;28;20294;-53
2023/06/26 01:54:11;;;;;;;9.13;8.15;;;;;;;;;;5045832;28;20429;-53
2023/06/26 01:56:38;;;;;;;9.75;8.85;;;;;;;;;;5054121;28;20246;-51
2023/06/26 01:59:08;;;;;;;8.95;8.15;;;;;;;;;;5056755;28;20334;-52
2023/06/26 02:01:35;;;;;;;9.00;8.10;;;;;;;;;;5050962;28;20236;-51
2023/06/26 02:04:01;;;;;;;7.95;7.25;;;;;;;;;;5054474;28;20223;-52
2023/06/26 02:06:28;;;;;;;8.05;7.38;;;;;;;;;;5057115;28;20251;-54
2023/06/26 02:08:56;;;;;;;10.52;9.50;;;;;;;;;;5046791;28;20226;-52
2023/06/26 02:11:23;;;;;;;9.35;8.45;;;;;;;;;;5054016;28;20649;-53
2023/06/26 02:13:49;;;;;;;8.80;8.10;;;;;;;;;;5049571;28;20616;-52
2023/06/26 02:16:17;;;;;;;9.70;8.70;;;;;;;;;;5049465;28;20236;-53
2023/06/26 02:18:44;;;;;;;9.57;8.65;;;;;;;;;;5041557;28;20240;-51
2023/06/26 02:21:11;;;;;;;9.80;8.88;;;;;;;;;;5058976;28;20250;-53
2023/06/26 02:23:38;;;;;;;9.43;8.63;;;;;;;;;;5037656;28;20315;-53
2023/06/26 02:26:05;;;;;;;12.77;11.50;;;;;;;;;;5050983;28;22108;-52
2023/06/26 02:28:33;;;;;;;11.70;10.60;;;;;;;;;;5052005;28;20665;-52
2023/06/26 02:31:00;;;;;;;10.95;9.80;;;;;;;;;;5044830;28;20240;-51
2023/06/26 02:33:28;;;;;;;10.82;9.82;;;;;;;;;;5052043;28;20293;-51
2023/06/26 02:35:55;;;;;;;12.40;11.13;;;;;;;;;;5049213;28;20665;-56
2023/06/26 02:38:21;;;;;;;9.90;9.00;;;;;;;;;;5051467;28;20323;-52
2023/06/26 02:40:48;;;;;;;10.30;9.32;;;;;;;;;;5047679;28;20990;-53
2023/06/26 02:43:16;;;;;;;10.95;9.73;;;;;;;;;;5043039;28;20312;-52
2023/06/26 02:45:42;;;;;;;10.18;9.23;;;;;;;;;;5044623;28;20249;-52
2023/06/26 02:48:09;;;;;;;10.93;9.77;;;;;;;;;;5039087;28;20232;-54
2023/06/26 02:50:37;;;;;;;10.45;9.45;;;;;;;;;;5041515;28;20606;-53
2023/06/26 02:53:03;;;;;;;10.70;9.73;;;;;;;;;;5054629;28;20296;-53
2023/06/26 02:55:30;;;;;;;11.93;10.80;;;;;;;;;;5051219;28;20235;-51
2023/06/26 02:57:56;;;;;;;11.70;10.60;;;;;;;;;;5056495;28;20231;-53
2023/06/26 03:00:23;;;;;;;11.00;10.00;;;;;;;;;;5059773;28;20995;-53
2023/06/26 03:02:50;;;;;;;11.43;10.32;;;;;;;;;;5055993;28;20242;-51
2023/06/26 03:05:16;;;;;;;11.65;10.48;;;;;;;;;;5053662;28;20255;-52
2023/06/26 03:07:44;;;;;;;10.13;9.18;;;;;;;;;;5056479;28;20577;-53
2023/06/26 03:10:11;;;;;;;12.02;10.82;;;;;;;;;;5050210;28;20714;-52
2023/06/26 03:12:37;;;;;;;13.07;10.40;;;;;;;;;;5045941;28;20235;-52
2023/06/26 03:15:04;;;;;;;13.25;10.75;;;;;;;;;;5045973;28;20904;-52
2023/06/26 03:17:31;;;;;;;12.18;11.07;;;;;;;;;;5053642;28;20228;-52
2023/06/26 03:19:58;;;;;;;13.30;11.73;;;;;;;;;;5054004;28;20216;-52
2023/06/26 03:22:24;;;;;;;11.70;10.70;;;;;;;;;;5057178;28;20678;-57
2023/06/26 03:24:52;;;;;;;12.02;10.85;;;;;;;;;;5064741;28;20227;-52
2023/06/26 03:27:19;;;;;;;12.55;11.38;;;;;;;;;;5067346;28;20314;-51
2023/06/26 03:29:46;;;;;;;14.48;12.50;;;;;;;;;;5061511;28;20800;-52
2023/06/26 03:32:13;;;;;;;11.85;10.75;;;;;;;;;;5073334;28;20712;-53
2023/06/26 03:34:39;;;;;;;12.98;11.70;;;;;;;;;;5070951;28;20266;-52
2023/06/26 03:37:06;;;;;;;11.90;10.77;;;;;;;;;;5066475;28;20614;-53
2023/06/26 03:39:33;;;;;;;13.00;11.80;;;;;;;;;;5069542;28;20335;-53
2023/06/26 03:42:01;;;;;;;13.48;12.27;;;;;;;;;;5067286;28;20784;-52
2023/06/26 03:44:28;;;;;;;12.30;11.18;;;;;;;;;;5065704;28;20227;-52
2023/06/26 03:46:54;;;;;;;12.35;11.18;;;;;;;;;;5069175;28;20234;-53
2023/06/26 03:49:21;;;;;;;11.73;10.73;;;;;;;;;;5060736;28;20247;-52
2023/06/26 03:51:47;;;;;;;13.63;12.35;;;;;;;;;;5067727;28;20284;-53
2023/06/26 03:54:14;;;;;;;13.50;12.10;;;;;;;;;;5057259;28;20235;-52
2023/06/26 03:56:41;;;;;;;11.52;10.32;;;;;;;;;;5067976;28;20235;-54
2023/06/26 03:59:09;;;;;;;11.07;10.07;;;;;;;;;;5069671;28;20227;-53
2023/06/26 04:01:36;;;;;;;11.50;10.50;;;;;;;;;;5061491;28;20894;-52
2023/06/26 04:04:03;;;;;;;11.13;10.23;;;;;;;;;;5059929;28;20231;-52
2023/06/26 04:06:31;;;;;;;12.27;11.07;;;;;;;;;;5065496;28;20223;-53
2023/06/26 04:08:57;;;;;;;14.15;11.35;;;;;;;;;;5077843;28;20276;-55
2023/06/26 04:11:24;;;;;;;10.25;9.35;;;;;;;;;;5067266;28;20356;-52
2023/06/26 04:13:51;;;;;;;10.95;9.82;;;;;;;;;;5069251;28;20230;-52
2023/06/26 04:16:19;;;;;;;9.43;8.63;;;;;;;;;;5054542;28;20255;-52
2023/06/26 04:18:45;;;;;;;9.85;9.05;;;;;;;;;;5069115;28;20229;-52
2023/06/26 04:21:13;;;;;;;11.02;10.13;;;;;;;;;;5063568;28;20227;-53
2023/06/26 04:23:39;;;;;;;10.55;9.63;;;;;;;;;;5063911;28;20888;-53
2023/06/26 04:26:07;;;;;;;12.60;11.35;;;;;;;;;;5067363;28;20246;-52
2023/06/26 04:28:33;;;;;;;12.05;10.95;;;;;;;;;;5072607;28;20223;-51
2023/06/26 04:31:00;;;;;;;10.88;9.95;;;;;;;;;;5068795;28;20237;-52
2023/06/26 04:33:28;;;;;;;10.10;9.15;;;;;;;;;;5068280;28;20322;-52
2023/06/26 04:35:55;;;;;;;11.93;9.55;;;;;;;;;;5074353;28;20231;-52
2023/06/26 04:38:21;;;;;;;11.98;10.88;;;;;;;;;;5062720;28;20258;-54
2023/06/26 04:40:48;;;;;;;9.95;9.13;;;;;;;;;;5065932;28;20231;-53
2023/06/26 04:43:15;;;;;;;10.55;9.48;;;;;;;;;;5071364;28;20261;-53
2023/06/26 04:45:41;;;;;;;10.85;9.85;;;;;;;;;;5064794;28;20791;-52
2023/06/26 04:48:09;;;;;;;9.05;8.25;;;;;;;;;;5061089;28;20304;-53
2023/06/26 04:50:37;;;;;;;11.95;10.77;;;;;;;;;;5064851;28;20740;-53
2023/06/26 04:53:04;;;;;;;10.70;9.70;;;;;;;;;;5063411;28;20330;-53
2023/06/26 04:55:30;;;;;;;10.95;9.77;;;;;;;;;;5064349;28;20231;-52
2023/06/26 04:57:57;;;;;;;11.93;10.85;;;;;;;;;;5071636;28;20781;-53
2023/06/26 05:00:24;;;;;;;9.15;8.40;;;;;;;;;;5068382;28;20235;-52
2023/06/26 05:03:00;;;;;;;10.88;9.88;;;;;;;;;;5062907;28;20355;-52
2023/06/26 05:05:27;;;;;;;9.70;8.90;;;;;;;;;;5063957;28;20234;-54
2023/06/26 05:07:55;;;;;;;11.40;10.27;;;;;;;;;;5063986;28;20231;-52
2023/06/26 05:10:22;;;;;;;10.40;9.50;;;;;;;;;;5064450;28;20223;-53
2023/06/26 05:12:48;;;;;;;12.15;10.32;;;;;;;;;;5055314;28;20645;-53
2023/06/26 05:15:15;;;;;;;12.23;11.02;;;;;;;;;;5064178;28;20649;-52
2023/06/26 05:17:42;;;;;;;10.15;9.23;;;;;;;;;;5069275;28;20313;-53
2023/06/26 05:20:09;;;;;;;10.30;9.27;;;;;;;;;;5069683;28;20314;-52
2023/06/26 05:22:39;;;;;;;10.88;9.77;;;;;;;;;;5063625;28;20245;-52
2023/06/26 05:25:09;;;;;;;11.98;10.98;;;;;;;;;;5068397;28;20230;-53
2023/06/26 05:27:35;;;;;;;11.77;10.68;;;;;;;;;;5067139;28;20308;-52
2023/06/26 05:30:02;;;;;;;12.20;10.77;;;;;;;;;;5060193;28;20227;-53
2023/06/26 05:32:30;;;;;;;12.00;10.88;;;;;;;;;;5059872;28;20320;-52
2023/06/26 05:34:56;;;;;;;11.57;10.48;;;;;;;;;;5061139;28;20314;-53
2023/06/26 05:37:23;;;;;;;34.30;30.70;;;;;;;;;;5061459;28;20237;-52
2023/06/26 05:39:50;;;;;;;19.75;17.88;;;;;;;;;;5049284;28;20224;-52
2023/06/26 05:42:18;;;;;;;13.45;12.35;;;;;;;;;;5053550;28;20955;-51
2023/06/26 05:44:45;;;;;;;11.77;10.57;;;;;;;;;;5061291;28;20227;-54
2023/06/26 05:47:11;;;;;;;11.05;10.00;;;;;;;;;;5070371;28;20242;-55
2023/06/26 05:49:38;;;;;;;10.95;10.05;;;;;;;;;;5076604;28;20544;-56
2023/06/26 05:52:05;;;;;;;10.80;9.80;;;;;;;;;;5074695;28;20263;-53
2023/06/26 05:54:32;;;;;;;11.13;10.02;;;;;;;;;;5071836;28;20243;-52
2023/06/26 05:56:59;;;;;;;12.10;11.00;;;;;;;;;;5060438;28;20281;-55
2023/06/26 05:59:27;;;;;;;10.90;10.00;;;;;;;;;;5072913;28;20235;-53
2023/06/26 06:01:54;;;;;;;10.95;9.95;;;;;;;;;;5074129;28;20218;-52
2023/06/26 06:04:20;;;;;;;11.15;10.05;;;;;;;;;;5070434;28;20233;-52
2023/06/26 06:06:48;;;;;;;11.13;10.05;;;;;;;;;;5061334;28;20243;-52
2023/06/26 06:09:14;;;;;;;9.85;8.95;;;;;;;;;;5053482;28;20228;-53
2023/06/26 06:11:41;;;;;;;12.32;10.52;;;;;;;;;;5059613;28;20231;-52
2023/06/26 06:14:07;;;;;;;10.32;9.38;;;;;;;;;;5063563;28;20226;-52
2023/06/26 06:16:35;;;;;;;11.15;10.07;;;;;;;;;;5062398;28;20226;-53
2023/06/26 06:19:03;;;;;;;10.18;9.18;;;;;;;;;;5056520;28;20231;-51
2023/06/26 06:21:29;;;;;;;9.75;8.85;;;;;;;;;;5065427;28;20227;-53
2023/06/26 06:23:56;;;;;;;9.45;8.52;;;;;;;;;;5057354;28;20713;-51
2023/06/26 06:26:22;;;;;;;10.02;8.63;;;;;;;;;;5068121;28;20787;-53
2023/06/26 06:28:48;;;;;;;8.93;8.23;;;;;;;;;;5057846;28;20365;-53
2023/06/26 06:31:15;;;;;;;9.52;8.48;;;;;;;;;;5060654;28;21106;-52
2023/06/26 06:33:43;;;;;;;8.75;8.02;;;;;;;;;;5062539;28;20242;-51
2023/06/26 06:36:09;;;;;;;10.57;7.97;;;;;;;;;;5056788;28;20234;-51
2023/06/26 06:38:35;;;;;;;8.68;7.88;;;;;;;;;;5066503;28;20234;-52
2023/06/26 06:41:02;;;;;;;9.10;7.82;;;;;;;;;;5060328;28;20289;-52
2023/06/26 06:43:28;;;;;;;8.95;7.03;;;;;;;;;;5068183;28;20240;-53
2023/06/26 06:45:55;;;;;;;8.57;7.60;;;;;;;;;;5052595;28;20255;-51
2023/06/26 06:48:21;;;;;;;8.07;7.32;;;;;;;;;;5058776;28;20254;-52
2023/06/26 06:50:49;;;;;;;8.13;7.30;;;;;;;;;;5066528;28;20316;-52
2023/06/26 06:53:16;;;;;;;7.28;6.57;;;;;;;;;;5073704;28;20314;-53
2023/06/26 06:55:42;;;;;;;6.82;5.53;;;;;;;;;;5069706;28;20299;-52
2023/06/26 06:58:08;;;;;;;9.43;6.68;;;;;;;;;;5079885;28;20296;-52
2023/06/26 07:00:35;;;;;;;7.78;6.03;;;;;;;;;;5072663;28;20219;-53
2023/06/26 07:03:01;;;;;;;6.70;6.03;;;;;;;;;;5063535;28;20305;-52
2023/06/26 07:05:28;;;;;;;7.50;6.45;;;;;;;;;;5077610;28;20231;-53
2023/06/26 07:07:55;;;;;;;8.40;7.10;;;;;;;;;;5080547;28;20226;-52
2023/06/26 07:10:22;;;;;;;7.80;7.10;;;;;;;;;;5063646;28;20347;-52
2023/06/26 07:12:48;;;;;;;7.22;6.53;;;;;;;;;;5066193;28;20311;-51
2023/06/26 07:15:14;;;;;;;7.50;5.85;;;;;;;;;;5075199;28;20318;-53
2023/06/26 07:17:41;;;;;;;7.05;6.45;;;;;;;;;;5075980;28;20234;-53
2023/06/26 07:20:08;;;;;;;6.95;6.25;;;;;;;;;;5073599;28;20308;-53
2023/06/26 07:22:34;;;;;;;7.80;7.10;;;;;;;;;;5072299;28;20243;-52
2023/06/26 07:25:03;;;;;;;7.55;6.82;;;;;;;;;;5067021;28;20231;-53
2023/06/26 07:27:30;;;;;;;7.00;6.40;;;;;;;;;;5063181;28;20228;-53
2023/06/26 07:29:57;;;;;;;6.85;6.22;;;;;;;;;;5068687;28;20289;-52
2023/06/26 07:32:23;;;;;;;6.60;6.00;;;;;;;;;;5067388;28;20230;-53
2023/06/26 07:34:49;;;;;;;7.00;5.93;;;;;;;;;;5063751;28;20318;-53
2023/06/26 07:37:16;;;;;;;7.00;6.25;;;;;;;;;;5069698;28;20725;-52
2023/06/26 07:39:42;;;;;;;6.22;5.38;;;;;;;;;;5076326;28;20259;-53
2023/06/26 07:42:10;;;;;;;6.07;5.15;;;;;;;;;;5074399;28;20313;-52
2023/06/26 07:44:36;;;;;;;6.18;5.57;;;;;;;;;;5067160;28;20322;-53
2023/06/26 07:47:03;;;;;;;6.28;5.78;;;;;;;;;;5067213;28;20231;-53
2023/06/26 07:49:29;;;;;;;5.57;5.03;;;;;;;;;;5068236;28;20598;-52
2023/06/26 07:51:56;;;;;;;5.30;4.90;;;;;;;;;;5065395;28;20314;-51
2023/06/26 07:54:22;;;;;;;6.32;5.55;;;;;;;;;;5066531;28;20275;-52
2023/06/26 07:56:55;;;;;;;9.77;5.47;;;;;;;;;;5071200;28;20370;-53
2023/06/26 07:59:24;;;;;;;5.45;5.05;;;;;;;;;;5059056;28;20241;-52
2023/06/26 08:01:51;;;;;;;6.80;6.07;;;;;;;;;;5065969;28;20611;-53
2023/06/26 08:04:18;;;;;;;6.25;5.68;;;;;;;;;;5067574;28;20344;-53
2023/06/26 08:06:44;;;;;;;5.90;5.32;;;;;;;;;;5059496;28;20323;-54
2023/06/26 08:09:12;;;;;;;5.47;5.03;;;;;;;;;;5069016;28;20314;-52
2023/06/26 08:11:38;;;;;;;5.40;5.00;;;;;;;;;;5072048;28;20705;-53
2023/06/26 08:14:05;;;;;;;5.65;4.80;;;;;;;;;;5069512;28;20255;-53
2023/06/26 08:16:33;;;;;;;6.50;5.43;;;;;;;;;;5061161;28;20237;-52
2023/06/26 08:18:59;;;;;;;5.45;5.00;;;;;;;;;;5062134;28;20523;-52
2023/06/26 08:21:25;;;;;;;5.40;4.90;;;;;;;;;;5065931;28;20227;-52
2023/06/26 08:23:52;;;;;;;5.97;5.47;;;;;;;;;;5066837;28;20272;-54
2023/06/26 08:26:18;;;;;;;6.70;4.78;;;;;;;;;;5057619;28;20240;-54
2023/06/26 08:28:45;;;;;;;5.63;5.13;;;;;;;;;;5054268;28;21007;-52
2023/06/26 08:31:11;;;;;;;7.88;6.00;;;;;;;;;;5070365;28;20680;-53
2023/06/26 08:33:39;;;;;;;4.80;4.30;;;;;;;;;;5061737;28;20236;-53
2023/06/26 08:36:06;;;;;;;4.60;4.30;;;;;;;;;;5053603;28;20313;-53
2023/06/26 08:38:32;;;;;;;5.68;4.60;;;;;;;;;;5078165;28;21816;-54
2023/06/26 08:40:59;;;;;;;4.65;4.25;;;;;;;;;;5064247;28;20232;-57
2023/06/26 08:43:26;;;;;;;9.00;4.78;;;;;;;;;;5077187;28;20605;-53
2023/06/26 08:45:53;;;;;;;4.65;4.32;;;;;;;;;;5070843;28;20875;-52
2023/06/26 08:48:21;;;;;;;4.93;4.43;;;;;;;;;;5072910;28;20323;-53
2023/06/26 08:50:50;;;;;;;5.00;4.60;;;;;;;;;;5067717;28;20308;-53
2023/06/26 08:53:22;;;;;;;5.55;4.90;;;;;;;;;;5065876;28;20235;-52
2023/06/26 08:55:50;;;;;;;5.20;4.30;;;;;;;;;;5067409;28;21886;-53
2023/06/26 08:58:16;;;;;;;4.85;4.18;;;;;;;;;;5067142;28;20277;-53
2023/06/26 09:00:43;;;;;;;5.90;5.07;;;;;;;;;;5060651;28;20231;-53
2023/06/26 09:03:10;;;;;;;4.50;4.10;;;;;;;;;;5065603;28;20230;-53
2023/06/26 09:05:37;;;;;;;5.40;4.90;;;;;;;;;;5069266;28;20327;-53
2023/06/26 09:08:05;;;;;;;4.80;4.40;;;;;;;;;;5070395;28;20238;-53
2023/06/26 09:10:32;;;;;;;5.20;4.70;;;;;;;;;;5067456;28;20226;-54
2023/06/26 09:13:00;;;;;;;5.40;4.90;;;;;;;;;;5071750;28;20692;-53
2023/06/26 09:15:28;;;;;;;6.03;4.70;;;;;;;;;;5046221;28;20235;-53
2023/06/26 09:17:57;;;;;;;4.78;4.38;;;;;;;;;;5068066;28;20231;-53
2023/06/26 09:20:24;;;;;;;4.85;4.45;;;;;;;;;;5066378;28;20246;-53
2023/06/26 09:22:50;;;;;;;4.30;3.90;;;;;;;;;;5066825;28;20245;-53
2023/06/26 09:25:22;;;;;;;5.30;4.78;;;;;;;;;;5065267;28;20819;-53
2023/06/26 09:27:49;;;;;;;4.90;4.07;;;;;;;;;;5051434;28;20234;-54
2023/06/26 09:30:17;;;;;;;5.22;4.70;;;;;;;;;;5068227;28;20315;-53
2023/06/26 09:32:44;;;;;;;4.57;4.18;;;;;;;;;;5061294;28;20601;-53
2023/06/26 09:35:10;;;;;;;4.70;4.15;;;;;;;;;;5057193;28;20226;-53
2023/06/26 09:37:37;;;;;;;4.68;4.28;;;;;;;;;;5066103;28;20227;-53
2023/06/26 09:40:04;;;;;;;4.68;4.28;;;;;;;;;;5056010;28;20314;-52
2023/06/26 09:42:32;;;;;;;4.70;3.97;;;;;;;;;;5059632;28;20236;-52
2023/06/26 09:44:58;;;;;;;4.47;4.07;;;;;;;;;;5068955;28;20736;-53
2023/06/26 09:47:25;;;;;;;4.07;3.72;;;;;;;;;;5063824;28;20720;-54
2023/06/26 09:49:52;;;;;;;4.57;4.18;;;;;;;;;;5066935;28;20227;-53
2023/06/26 09:52:19;;;;;;;4.40;4.10;;;;;;;;;;5065064;28;20238;-54
2023/06/26 09:54:45;;;;;;;5.78;4.20;;;;;;;;;;5061470;28;20300;-54
2023/06/26 09:57:12;;;;;;;4.53;4.13;;;;;;;;;;5067538;28;20234;-54
2023/06/26 09:59:40;;;;;;;6.45;4.38;;;;;;;;;;5066123;28;20259;-54
2023/06/26 10:02:07;;;;;;;4.85;4.45;;;;;;;;;;5064481;28;20230;-52
2023/06/26 10:04:33;;;;;;;4.10;3.80;;;;;;;;;;5071193;28;20257;-54
2023/06/26 10:07:02;;;;;;;4.25;3.88;;;;;;;;;;5066779;28;20238;-54
2023/06/26 10:09:30;;;;;;;5.03;4.53;;;;;;;;;;5073563;28;20308;-52
2023/06/26 10:11:57;;;;;;;5.00;4.47;;;;;;;;;;5065836;28;20303;-53
2023/06/26 10:14:27;;;;;;;4.93;4.53;;;;;;;;;;5067641;28;20329;-53
2023/06/26 10:16:56;;;;;;;5.05;4.55;;;;;;;;;;5062501;28;20322;-53
2023/06/26 10:19:26;;;;;;;4.72;4.32;;;;;;;;;;5059211;28;20292;-53
2023/06/26 10:21:52;;;;;;;4.63;4.22;;;;;;;;;;5056448;28;20271;-54
2023/06/26 10:24:20;;;;;;;4.78;4.38;;;;;;;;;;5064418;28;20250;-54
2023/06/26 10:26:48;;;;;;;4.75;4.25;;;;;;;;;;5049848;28;20270;-53
2023/06/26 10:29:16;;;;;;;4.72;4.32;;;;;;;;;;5059333;28;20226;-53
2023/06/26 10:31:45;;;;;;;5.82;5.38;;;;;;;;;;5059874;28;20249;-54
2023/06/26 10:34:13;;;;;;;6.13;4.40;;;;;;;;;;5063600;28;20258;-55
2023/06/26 10:36:40;;;;;;;5.50;3.65;;;;;;;;;;5057083;28;20319;-53
2023/06/26 10:39:07;;;;;;;5.57;4.00;;;;;;;;;;5062864;28;20279;-54
2023/06/26 10:41:37;;;;;;;5.57;3.97;;;;;;;;;;5065362;28;20245;-53
2023/06/26 10:44:08;;;;;;;4.80;4.03;;;;;;;;;;5061943;28;20226;-53
2023/06/26 10:46:34;;;;;;;3.95;3.65;;;;;;;;;;5059679;28;20644;-53
2023/06/26 10:49:01;;;;;;;4.35;4.05;;;;;;;;;;5061690;28;20318;-54
2023/06/26 10:51:29;;;;;;;4.63;4.22;;;;;;;;;;5065932;28;20303;-53
2023/06/26 10:53:56;;;;;;;6.97;4.53;;;;;;;;;;5062896;28;20227;-53
2023/06/26 10:56:22;;;;;;;4.82;3.45;;;;;;;;;;5059781;28;20231;-54
2023/06/26 10:58:49;;;;;;;4.97;4.57;;;;;;;;;;5063534;28;20352;-52
2023/06/26 11:01:19;;;;;;;4.75;4.07;;;;;;;;;;5061710;28;20300;-54
2023/06/26 11:03:47;;;;;;;3.90;3.60;;;;;;;;;;5057583;28;20232;-54
2023/06/26 11:06:14;;;;;;;5.70;4.07;;;;;;;;;;5059953;28;20230;-55
2023/06/26 11:08:48;;;;;;;4.13;3.83;;;;;;;;;;5066327;28;20231;-53
2023/06/26 11:11:14;;;;;;;9.85;4.70;;;;;;;;;;5065794;28;20221;-54
2023/06/26 11:13:42;;;;;;;4.88;4.47;;;;;;;;;;5069589;28;20440;-52
2023/06/26 11:16:08;;;;;;;4.93;4.55;;;;;;;;;;5068248;28;20654;-52
2023/06/26 11:18:34;;;;;;;6.47;4.00;;;;;;;;;;5062440;28;20310;-55
2023/06/26 11:21:07;;;;;;;4.57;3.92;;;;;;;;;;5068526;28;20227;-53
2023/06/26 11:23:35;;;;;;;5.53;5.03;;;;;;;;;;5052495;28;20228;-52
2023/06/26 11:26:15;;;;;;;5.10;4.50;;;;;;;;;;5051379;28;20315;-55
2023/06/26 11:28:46;;;;;;;5.13;4.50;;;;;;;;;;5055878;28;20257;-55
2023/06/26 11:31:24;;;;;;;3.97;3.63;;;;;;;;;;5068326;28;20662;-54
2023/06/26 11:33:50;;;;;;;4.45;4.05;;;;;;;;;;5067768;28;20241;-54
2023/06/26 11:36:17;;;;;;;5.80;5.15;;;;;;;;;;5069641;28;20242;-54
2023/06/26 11:38:43;;;;;;;4.47;4.07;;;;;;;;;;5073797;28;20241;-54
2023/06/26 11:41:10;;;;;;;5.25;4.80;;;;;;;;;;5067963;28;20231;-54
2023/06/26 11:43:37;;;;;;;7.22;4.78;;;;;;;;;;5070755;28;20779;-53
2023/06/26 11:46:04;;;;;;;4.63;4.20;;;;;;;;;;5067500;28;20241;-55
2023/06/26 11:48:31;;;;;;;4.55;4.15;;;;;;;;;;5068572;28;20223;-55
2023/06/26 11:50:57;;;;;;;5.20;4.70;;;;;;;;;;5072758;28;20322;-55
2023/06/26 11:53:24;;;;;;;4.45;4.05;;;;;;;;;;5064880;28;20877;-54
2023/06/26 11:55:50;;;;;;;4.60;3.90;;;;;;;;;;5065452;28;20292;-54
2023/06/26 11:58:16;;;;;;;4.22;3.92;;;;;;;;;;5062285;28;20223;-53
2023/06/26 12:00:44;;;;;;;4.63;4.10;;;;;;;;;;5069179;28;20657;-54
2023/06/26 12:03:11;;;;;;;4.32;3.88;;;;;;;;;;5060817;28;20307;-54
2023/06/26 12:05:37;;;;;;;4.43;4.03;;;;;;;;;;5074005;28;20704;-53
2023/06/26 12:08:06;;;;;;;4.50;4.10;;;;;;;;;;5073099;28;20245;-58
2023/06/26 12:10:33;;;;;;;4.53;4.13;;;;;;;;;;5065169;28;20727;-54
2023/06/26 12:13:01;;;;;;;4.40;4.00;;;;;;;;;;5062753;28;20965;-53
2023/06/26 12:15:28;;;;;;;4.32;4.03;;;;;;;;;;5057241;28;20226;-53
2023/06/26 12:17:56;;;;;;;4.85;4.45;;;;;;;;;;5053150;28;20264;-53
2023/06/26 12:20:23;;;;;;;4.22;3.92;;;;;;;;;;5060970;28;20230;-54
2023/06/26 12:22:50;;;;;;;4.65;4.32;;;;;;;;;;5062209;28;20321;-52
2023/06/26 12:25:21;;;;;;;5.13;4.63;;;;;;;;;;5051696;28;20255;-52
2023/06/26 12:27:48;;;;;;;4.95;4.55;;;;;;;;;;5059191;28;20313;-53
2023/06/26 12:30:16;;;;;;;4.85;4.45;;;;;;;;;;5063977;28;20227;-52
2023/06/26 12:32:45;;;;;;;4.90;4.50;;;;;;;;;;5053534;28;20672;-52
2023/06/26 12:35:13;;;;;;;5.95;4.22;;;;;;;;;;5064482;28;20814;-53
2023/06/26 12:37:42;;;;;;;5.18;4.53;;;;;;;;;;5062263;28;20231;-53
2023/06/26 12:40:17;;;;;;;5.55;5.05;;;;;;;;;;5066639;28;20321;-54
2023/06/26 12:42:46;;;;;;;6.63;4.75;;;;;;;;;;5057926;28;20305;-53
2023/06/26 12:45:13;;;;;;;4.95;4.55;;;;;;;;;;5063814;28;20770;-52
2023/06/26 12:47:41;;;;;;;5.03;4.63;;;;;;;;;;5059292;28;20235;-52
2023/06/26 12:50:08;;;;;;;4.82;4.45;;;;;;;;;;5068443;28;20234;-53
2023/06/26 12:52:35;;;;;;;5.40;4.90;;;;;;;;;;5061414;28;20251;-54
2023/06/26 12:55:02;;;;;;;5.13;4.70;;;;;;;;;;5062720;28;20372;-52
2023/06/26 12:57:28;;;;;;;5.07;4.68;;;;;;;;;;5068241;28;20651;-52
2023/06/26 12:59:55;;;;;;;5.88;4.72;;;;;;;;;;5055868;28;20327;-53
2023/06/26 13:02:21;;;;;;;5.97;4.80;;;;;;;;;;5064030;28;20730;-52
2023/06/26 13:04:48;;;;;;;4.93;4.53;;;;;;;;;;5065349;28;20312;-52
2023/06/26 13:07:14;;;;;;;9.50;6.05;;;;;;;;;;5060541;28;20284;-51
2023/06/26 13:09:42;;;;;;;6.10;5.50;;;;;;;;;;5061677;28;20235;-52
2023/06/26 13:12:09;;;;;;;6.40;5.78;;;;;;;;;;5066372;28;20614;-52
2023/06/26 13:14:35;;;;;;;6.50;5.97;;;;;;;;;;5058003;28;20696;-53
2023/06/26 13:17:01;;;;;;;10.90;5.20;;;;;;;;;;5062489;28;20231;-55
2023/06/26 13:19:28;;;;;;;5.85;5.32;;;;;;;;;;5058865;28;20338;-53
2023/06/26 13:21:55;;;;;;;7.72;6.18;;;;;;;;;;5053904;28;20232;-53
2023/06/26 13:24:21;;;;;;;6.72;6.13;;;;;;;;;;5056313;28;20447;-53
2023/06/26 13:26:49;;;;;;;8.75;6.20;;;;;;;;;;5056845;28;20782;-52
2023/06/26 13:29:15;;;;;;;7.88;5.80;;;;;;;;;;5055536;28;20275;-54
2023/06/26 13:31:42;;;;;;;6.13;5.63;;;;;;;;;;5064048;28;20278;-54
2023/06/26 13:34:08;;;;;;;6.40;5.90;;;;;;;;;;5066409;28;20234;-54
2023/06/26 13:36:35;;;;;;;6.35;5.60;;;;;;;;;;5055014;28;20223;-53
2023/06/26 13:39:02;;;;;;;6.35;5.82;;;;;;;;;;5058793;28;20274;-53
2023/06/26 13:41:28;;;;;;;6.13;5.63;;;;;;;;;;5059704;28;20760;-53
2023/06/26 13:43:56;;;;;;;6.03;5.43;;;;;;;;;;5062263;28;20247;-53
2023/06/26 13:46:23;;;;;;;6.55;6.05;;;;;;;;;;5063573;28;20330;-53
2023/06/26 13:48:49;;;;;;;6.53;5.65;;;;;;;;;;5058259;28;20231;-52
2023/06/26 13:51:16;;;;;;;6.15;5.65;;;;;;;;;;5060202;28;20224;-52
2023/06/26 13:53:42;;;;;;;6.03;5.53;;;;;;;;;;5065347;28;20247;-52
2023/06/26 13:56:08;;;;;;;6.25;5.75;;;;;;;;;;5068563;28;20227;-54
2023/06/26 13:58:36;;;;;;;6.32;5.72;;;;;;;;;;5069251;28;20309;-53
2023/06/26 14:01:04;;;;;;;6.32;5.82;;;;;;;;;;5071325;28;21131;-52
2023/06/26 14:03:30;;;;;;;6.38;5.88;;;;;;;;;;5060225;28;20300;-53
2023/06/26 14:05:57;;;;;;;6.15;5.65;;;;;;;;;;5065633;28;20248;-52
2023/06/26 14:08:23;;;;;;;5.68;5.18;;;;;;;;;;5061690;28;20292;-52
2023/06/26 14:10:50;;;;;;;6.03;5.53;;;;;;;;;;5059251;28;20223;-53
2023/06/26 14:13:16;;;;;;;11.30;6.00;;;;;;;;;;5062297;28;20235;-53
2023/06/26 14:15:43;;;;;;;6.32;5.72;;;;;;;;;;5053819;28;20292;-53
2023/06/26 14:18:11;;;;;;;12.30;6.90;;;;;;;;;;5055249;28;20711;-55
2023/06/26 14:20:37;;;;;;;17.98;8.40;;;;;;;;;;5062291;28;20238;-57
2023/06/26 14:23:04;;;;;;;15.00;8.45;;;;;;;;;;5056254;28;20263;-53
2023/06/26 14:25:30;;;;;;;12.80;7.60;;;;;;;;;;5058887;28;20233;-54
2023/06/26 14:27:57;;;;;;;10.40;5.35;;;;;;;;;;5061674;28;20235;-54
2023/06/26 14:30:23;;;;;;;9.82;5.38;;;;;;;;;;5063854;28;20237;-56
2023/06/26 14:32:50;;;;;;;5.72;4.50;;;;;;;;;;5059512;28;20704;-56
2023/06/26 14:35:17;;;;;;;12.38;6.68;;;;;;;;;;5055368;28;20235;-57